Time;durP1;ratioP1;P1;durP2;ratioP2;P2;SDS_P1;SDS_P2;PMS_P1;PMS_P2;Temp;Humidity;BMP_temperature;BMP_pressure;BME280_temperature;BME280_humidity;BME280_pressure;Samples;Min_cycle;Max_cycle;Signal;HPM_P1;HPM_P2
2022/10/28 00:02:10;;;;;;;66.07;63.25;;;;;;;13.49;100.00;101798.06;5044795;28;20033;-83
2022/10/28 00:04:36;;;;;;;67.15;64.20;;;;;;;13.48;100.00;101806.97;5079893;28;20052;-85
2022/10/28 00:07:01;;;;;;;63.25;60.70;;;;;;;13.57;100.00;101820.22;5080200;28;20114;-83
2022/10/28 00:09:27;;;;;;;63.85;61.03;;;;;;;13.44;100.00;101802.97;5079616;28;20047;-83
2022/10/28 00:11:52;;;;;;;60.45;57.03;;;;;;;13.56;100.00;101815.88;5069310;28;20031;-83
2022/10/28 00:14:17;;;;;;;59.47;56.92;;;;;;;13.59;100.00;101817.44;5078238;28;20049;-84
2022/10/28 00:16:43;;;;;;;55.08;52.78;;;;;;;13.38;100.00;101786.66;5063655;28;20035;-83
2022/10/28 00:19:11;;;;;;;63.95;60.65;;;;;;;13.39;100.00;101779.53;5048281;28;20024;-83
2022/10/28 00:21:38;;;;;;;60.40;57.65;;;;;;;13.60;100.00;101821.75;5082917;28;20028;-83
2022/10/28 00:24:05;;;;;;;59.10;56.50;;;;;;;13.61;100.00;101817.25;5078566;28;20483;-83
2022/10/28 00:26:32;;;;;;;64.07;60.47;;;;;;;13.56;100.00;101805.28;5081245;28;20032;-83
2022/10/28 00:29:04;;;;;;;61.42;58.60;;;;;;;13.66;100.00;101799.94;5080044;28;20020;-83
2022/10/28 00:31:30;;;;;;;58.60;56.17;;;;;;;13.60;100.00;101800.53;5085652;28;20031;-83
2022/10/28 00:33:58;;;;;;;62.53;59.78;;;;;;;13.72;100.00;101814.44;5080876;28;20035;-83
2022/10/28 00:36:30;;;;;;;66.22;63.33;;;;;;;13.61;100.00;101798.69;5081372;28;20110;-83
2022/10/28 00:38:56;;;;;;;65.63;62.55;;;;;;;13.62;100.00;101798.56;5085936;28;20154;-83
2022/10/28 00:41:43;;;;;;;63.22;60.28;;;;;;;13.55;100.00;101785.06;5063413;28;20028;-84
2022/10/28 00:44:46;;;;;;;57.40;54.25;;;;;;;13.71;100.00;101807.44;5085775;28;20441;-83
2022/10/28 00:47:37;;;;;;;60.97;58.25;;;;;;;13.72;100.00;101779.97;5078513;28;20054;-83
2022/10/28 00:50:14;;;;;;;67.45;64.00;;;;;;;13.75;100.00;101755.78;5078507;28;20028;-83
2022/10/28 00:52:43;;;;;;;65.35;62.58;;;;;;;13.68;100.00;101722.88;5077755;28;20051;-84
2022/10/28 00:55:09;;;;;;;62.20;59.53;;;;;;;13.76;100.00;101736.19;5078627;28;20084;-83
2022/10/28 00:57:36;;;;;;;57.53;54.60;;;;;;;13.68;100.00;101706.97;5077952;28;20043;-83
2022/10/28 01:00:05;;;;;;;63.55;60.92;;;;;;;13.69;100.00;101714.75;5080730;28;20028;-83
2022/10/28 01:02:36;;;;;;;62.15;59.28;;;;;;;13.71;100.00;101735.81;5058897;28;20602;-83
2022/10/28 01:05:02;;;;;;;56.67;54.25;;;;;;;13.64;100.00;101755.97;5079152;28;20012;-83
2022/10/28 01:07:29;;;;;;;63.45;60.65;;;;;;;13.62;100.00;101757.94;5080702;28;20073;-83
2022/10/28 01:09:54;;;;;;;66.85;64.05;;;;;;;13.58;100.00;101750.25;5085689;28;20036;-83
2022/10/28 01:12:48;;;;;;;61.83;59.13;;;;;;;13.74;100.00;101775.31;5078265;28;20044;-83
2022/10/28 01:15:31;;;;;;;60.67;58.03;;;;;;;13.74;100.00;101765.56;5113612;28;20055;-83
2022/10/28 01:18:09;;;;;;;61.00;58.10;;;;;;;13.82;100.00;101766.63;5078221;28;20028;-83
2022/10/28 01:21:07;;;;;;;63.75;60.83;;;;;;;13.71;100.00;101757.06;5078411;28;20036;-83
2022/10/28 01:23:53;;;;;;;59.53;57.10;;;;;;;13.86;100.00;101781.28;5077696;28;20055;-82
2022/10/28 01:26:50;;;;;;;64.50;61.80;;;;;;;13.66;100.00;101751.38;5036112;28;20040;-83
2022/10/28 01:29:43;;;;;;;57.30;54.33;;;;;;;13.85;100.00;101777.78;5080171;28;20036;-83
2022/10/28 01:32:43;;;;;;;59.15;55.72;;;;;;;13.76;100.00;101768.03;5078028;28;20077;-84
2022/10/28 01:35:29;;;;;;;57.22;54.50;;;;;;;13.50;100.00;101736.94;5069205;28;20067;-83
2022/10/28 01:38:28;;;;;;;58.78;56.22;;;;;;;13.63;100.00;101772.88;5078597;28;20037;-83
2022/10/28 01:41:15;;;;;;;57.10;54.38;;;;;;;13.58;100.00;101760.03;5080099;28;20066;-83
2022/10/28 01:44:04;;;;;;;65.05;62.15;;;;;;;13.56;100.00;101760.19;5079238;28;20035;-83
2022/10/28 01:46:47;;;;;;;58.42;55.95;;;;;;;13.56;100.00;101760.19;5047395;28;20090;-83
2022/10/28 01:49:24;;;;;;;60.10;57.28;;;;;;;13.46;100.00;101735.56;5076397;28;20025;-83
2022/10/28 01:51:55;;;;;;;61.55;58.78;;;;;;;13.50;100.00;101741.38;5079133;28;20103;-83
2022/10/28 01:54:23;;;;;;;;;;;;;;;13.54;100.00;101742.75;5084152;28;20644;-83
2022/10/28 01:56:52;;;;;;;56.05;52.90;;;;;;;13.52;100.00;101742.91;5077989;28;19912;-83
2022/10/28 01:59:23;;;;;;;62.45;59.38;;;;;;;13.43;100.00;101725.22;5078354;28;20032;-83
2022/10/28 02:01:49;;;;;;;66.15;62.83;;;;;;;13.43;100.00;101725.22;5086079;28;20437;-83
2022/10/28 02:04:14;;;;;;;63.50;60.80;;;;;;;13.47;100.00;101737.19;5075716;28;20119;-83
2022/10/28 02:06:43;;;;;;;63.28;60.38;;;;;;;13.51;100.00;101733.28;5077628;28;20028;-83
2022/10/28 02:09:27;;;;;;;63.90;60.70;;;;;;;13.47;100.00;101737.19;5076749;28;20526;-83
2022/10/28 02:12:21;;;;;;;62.72;60.10;;;;;;;13.46;100.00;101734.72;5081822;28;20067;-83
2022/10/28 02:14:53;;;;;;;57.58;55.08;;;;;;;13.41;100.00;101744.91;5070038;28;20040;-83
2022/10/28 02:17:42;;;;;;;63.35;60.70;;;;;;;13.40;100.00;101745.91;5080492;28;20028;-83
2022/10/28 02:20:33;;;;;;;62.85;60.20;;;;;;;13.38;100.00;101736.28;5082633;28;20028;-83
2022/10/28 02:23:26;;;;;;;62.15;59.28;;;;;;;13.37;100.00;101744.38;5088076;28;20573;-82
2022/10/28 02:25:58;;;;;;;60.42;57.78;;;;;;;13.32;100.00;101733.38;5081000;28;20059;-83
2022/10/28 02:28:30;;;;;;;67.40;64.00;;;;;;;13.33;100.00;101727.94;5080917;28;20076;-83
2022/10/28 02:31:06;;;;;;;66.47;63.60;;;;;;;13.39;100.00;101737.09;5114766;27;20028;-83
2022/10/28 02:33:37;;;;;;;65.18;61.80;;;;;;;13.28;100.00;101726.66;5080789;28;20450;-83
2022/10/28 02:36:11;;;;;;;65.82;62.63;;;;;;;13.41;100.00;101740.44;5083012;28;20036;-83
2022/10/28 02:38:47;;;;;;;63.22;60.17;;;;;;;13.30;100.00;101730.03;5079937;28;20047;-83
2022/10/28 02:41:21;;;;;;;68.90;65.93;;;;;;;13.40;100.00;101736.13;5081625;28;20036;-83
2022/10/28 02:43:52;;;;;;;70.35;67.35;;;;;;;13.15;100.00;101709.28;5095862;27;20035;-83
2022/10/28 02:46:18;;;;;;;65.22;62.33;;;;;;;13.28;100.00;101732.84;5080609;28;20146;-83
2022/10/28 02:48:48;;;;;;;71.40;68.00;;;;;;;13.28;100.00;101727.53;5080972;28;20028;-83
2022/10/28 02:51:35;;;;;;;73.65;69.95;;;;;;;13.14;100.00;101715.56;5082784;28;20039;-83
2022/10/28 02:54:12;;;;;;;68.15;64.75;;;;;;;13.14;100.00;101706.78;5080423;28;20376;-83
2022/10/28 02:57:02;;;;;;;70.70;67.65;;;;;;;13.19;100.00;101728.38;5087716;28;20923;-83
2022/10/28 02:59:28;;;;;;;69.63;66.43;;;;;;;13.10;100.00;101714.16;5075803;28;20059;-83
2022/10/28 03:01:54;;;;;;;69.47;66.30;;;;;;;13.08;100.00;101716.13;5078587;28;20037;-83
2022/10/28 03:04:20;;;;;;;69.78;65.72;;;;;;;13.16;100.00;101721.53;5080432;28;20047;-82
2022/10/28 03:06:45;;;;;;;68.90;65.35;;;;;;;13.12;100.00;101704.25;5080702;28;20025;-83
2022/10/28 03:09:11;;;;;;;69.07;65.55;;;;;;;13.17;100.00;101709.97;5064030;28;20043;-83
2022/10/28 03:11:36;;;;;;;68.20;64.70;;;;;;;13.08;100.00;101702.06;5081956;28;20027;-83
2022/10/28 03:14:02;;;;;;;68.30;65.35;;;;;;;13.02;100.00;101687.59;5047872;28;20146;-83
2022/10/28 03:16:27;;;;;;;69.40;66.22;;;;;;;12.99;100.00;101695.81;5045981;28;20051;-83
2022/10/28 03:18:53;;;;;;;66.78;63.63;;;;;;;12.99;100.00;101682.56;5080547;28;20475;-83
2022/10/28 03:21:18;;;;;;;68.97;65.90;;;;;;;13.08;100.00;101700.22;5077888;28;20044;-83
2022/10/28 03:23:44;;;;;;;66.63;63.38;;;;;;;13.02;100.00;101690.22;5080333;28;20035;-83
2022/10/28 03:26:09;;;;;;;68.50;64.63;;;;;;;12.94;100.00;101679.50;5077900;28;20103;-83
2022/10/28 03:28:35;;;;;;;65.13;60.55;;;;;;;12.86;100.00;101669.63;5062430;28;20473;-83
2022/10/28 03:31:00;;;;;;;75.10;70.88;;;;;;;12.90;100.00;101671.00;5081322;28;20063;-83
2022/10/28 03:33:26;;;;;;;67.82;64.43;;;;;;;13.00;100.00;101684.25;5045780;28;20028;-82
2022/10/28 03:35:51;;;;;;;68.55;65.15;;;;;;;13.00;100.00;101686.03;5084728;28;20122;-83
2022/10/28 03:38:16;;;;;;;70.03;66.57;;;;;;;12.94;100.00;101676.88;5079386;28;20451;-83
2022/10/28 03:40:42;;;;;;;62.08;58.80;;;;;;;12.97;100.00;101684.50;5078125;28;20035;-83
2022/10/28 03:43:07;;;;;;;68.78;65.20;;;;;;;12.96;100.00;101688.16;5082813;28;20039;-83
2022/10/28 03:45:32;;;;;;;65.07;61.17;;;;;;;12.97;100.00;101692.47;5081890;28;20514;-83
2022/10/28 03:47:58;;;;;;;72.68;69.03;;;;;;;12.96;100.00;101686.34;5080369;28;20028;-83
2022/10/28 03:50:24;;;;;;;65.47;61.80;;;;;;;12.95;100.00;101681.19;5064016;28;20461;-82
2022/10/28 03:52:49;;;;;;;67.72;64.13;;;;;;;12.90;100.00;101664.88;5087245;28;20032;-83
2022/10/28 03:55:15;;;;;;;69.40;65.68;;;;;;;12.95;100.00;101673.22;5062059;28;20096;-83
2022/10/28 03:57:40;;;;;;;73.72;70.20;;;;;;;12.84;100.00;101655.69;5079742;28;20494;-83
2022/10/28 04:00:06;;;;;;;66.43;63.13;;;;;;;12.89;100.00;101663.19;5063995;28;20048;-83
2022/10/28 04:02:31;;;;;;;64.97;61.60;;;;;;;12.94;100.00;101666.28;5080879;28;20135;-82
2022/10/28 04:04:57;;;;;;;66.75;63.08;;;;;;;12.85;100.00;101652.06;5081194;28;20119;-82
2022/10/28 04:07:22;;;;;;;71.05;66.95;;;;;;;12.96;100.00;101670.44;5078408;28;20024;-82
2022/10/28 04:09:50;;;;;;;80.22;75.88;;;;;;;12.80;100.00;101641.06;5087823;28;20036;-82
2022/10/28 04:12:16;;;;;;;70.78;66.85;;;;;;;12.92;100.00;101661.09;5078778;28;20040;-83
2022/10/28 04:14:42;;;;;;;73.97;70.05;;;;;;;12.81;100.00;101647.22;5079654;28;20704;-83
2022/10/28 04:17:07;;;;;;;64.32;61.15;;;;;;;12.74;100.00;101642.50;5077302;28;20035;-83
2022/10/28 04:19:33;;;;;;;70.93;67.03;;;;;;;12.82;100.00;101649.69;5081511;28;20634;-82
2022/10/28 04:21:58;;;;;;;73.25;69.45;;;;;;;12.69;100.00;101633.31;5078470;28;20100;-83
2022/10/28 04:24:23;;;;;;;70.45;67.03;;;;;;;12.89;100.00;101657.91;5070194;28;20016;-82
2022/10/28 04:26:49;;;;;;;68.10;64.13;;;;;;;12.86;100.00;101658.22;5080338;28;20035;-82
2022/10/28 04:29:14;;;;;;;72.30;68.38;;;;;;;12.89;100.00;101663.19;5078883;28;20043;-83
2022/10/28 04:31:39;;;;;;;67.13;63.53;;;;;;;12.87;100.00;101666.03;5080692;28;20077;-83
2022/10/28 04:34:05;;;;;;;69.10;65.30;;;;;;;12.88;100.00;101658.91;5076695;28;20027;-83
2022/10/28 04:36:30;;;;;;;75.32;71.85;;;;;;;12.88;100.00;101658.91;5046168;28;20035;-83
2022/10/28 04:38:55;;;;;;;67.95;64.65;;;;;;;12.79;100.00;101635.94;5080388;28;20067;-82
2022/10/28 04:41:21;;;;;;;69.20;65.60;;;;;;;12.83;100.00;101642.63;5045513;28;20495;-82
2022/10/28 04:43:46;;;;;;;66.93;63.67;;;;;;;12.82;100.00;101640.94;5060142;28;20086;-82
2022/10/28 04:46:11;;;;;;;65.75;61.95;;;;;;;12.87;100.00;101644.81;5079494;28;20052;-83
2022/10/28 04:48:37;;;;;;;64.32;61.15;;;;;;;12.74;100.00;101628.44;5079989;28;20036;-83
2022/10/28 04:51:02;;;;;;;67.20;64.10;;;;;;;12.64;100.00;101624.97;5062265;28;20031;-82
2022/10/28 04:53:28;;;;;;;66.55;63.33;;;;;;;12.65;100.00;101629.28;5080684;28;20515;-83
2022/10/28 04:55:57;;;;;;;69.80;66.28;;;;;;;12.69;100.00;101636.78;5060647;28;20024;-83
2022/10/28 04:58:24;;;;;;;68.28;65.18;;;;;;;12.54;100.00;101620.53;5078502;28;20086;-82
2022/10/28 05:00:49;;;;;;;66.53;62.88;;;;;;;12.59;100.00;101636.00;5079097;28;20032;-83
2022/10/28 05:03:14;;;;;;;66.10;61.95;;;;;;;12.63;100.00;101637.38;5079592;28;20043;-82
2022/10/28 05:05:40;;;;;;;71.47;67.75;;;;;;;12.63;100.00;101652.41;5078054;28;20398;-83
2022/10/28 05:08:06;;;;;;;67.10;63.78;;;;;;;12.41;100.00;101612.09;5060759;28;20067;-83
2022/10/28 05:10:31;;;;;;;75.13;71.35;;;;;;;12.46;100.00;101625.72;5075387;28;20032;-82
2022/10/28 05:12:57;;;;;;;71.82;68.18;;;;;;;12.59;100.00;101646.59;5078463;28;20816;-82
2022/10/28 05:15:25;;;;;;;64.18;60.35;;;;;;;12.52;100.00;101629.59;5077298;28;20043;-82
2022/10/28 05:17:51;;;;;;;62.70;59.42;;;;;;;12.53;100.00;101639.22;5076229;28;20028;-83
2022/10/28 05:20:17;;;;;;;72.82;69.07;;;;;;;12.54;100.00;101636.44;5078863;28;20036;-84
2022/10/28 05:22:47;;;;;;;70.72;67.32;;;;;;;12.52;100.00;101634.88;5075527;28;20157;-83
2022/10/28 05:25:13;;;;;;;65.90;62.97;;;;;;;12.39;100.00;101614.03;5075262;28;20470;-83
2022/10/28 05:27:38;;;;;;;66.32;63.20;;;;;;;12.49;100.00;101630.72;5074571;28;20043;-83
2022/10/28 05:30:04;;;;;;;69.53;65.70;;;;;;;12.45;100.00;101626.66;5075016;28;20025;-83
2022/10/28 05:32:30;;;;;;;69.80;66.40;;;;;;;12.32;100.00;101602.31;5074114;28;20189;-82
2022/10/28 05:34:55;;;;;;;84.68;80.60;;;;;;;12.45;100.00;101621.38;5042202;28;20032;-81
2022/10/28 05:37:20;;;;;;;74.80;71.18;;;;;;;12.35;100.00;101613.47;5076320;28;20112;-83
2022/10/28 05:39:46;;;;;;;66.43;62.95;;;;;;;12.38;100.00;101607.06;5076791;28;20109;-82
2022/10/28 05:42:11;;;;;;;62.85;59.40;;;;;;;12.28;100.00;101593.00;5076550;28;20042;-82
2022/10/28 05:44:36;;;;;;;63.35;59.58;;;;;;;12.38;100.00;101608.88;5061478;28;20035;-82
2022/10/28 05:47:02;;;;;;;64.95;61.65;;;;;;;12.41;100.00;101616.50;5083573;28;20032;-83
2022/10/28 05:49:27;;;;;;;68.70;65.57;;;;;;;12.40;100.00;101610.41;5064433;28;20032;-82
2022/10/28 05:51:52;;;;;;;69.28;65.68;;;;;;;12.29;100.00;101586.75;5077513;28;20055;-82
2022/10/28 05:54:18;;;;;;;71.03;67.43;;;;;;;12.25;100.00;101588.84;5077540;28;20028;-82
2022/10/28 05:56:43;;;;;;;66.43;63.33;;;;;;;12.24;100.00;101595.13;5076135;28;20111;-82
2022/10/28 05:59:09;;;;;;;70.80;67.78;;;;;;;12.34;100.00;101609.16;5043405;28;20441;-82
2022/10/28 06:01:34;;;;;;;70.63;66.53;;;;;;;12.31;100.00;101609.44;5077957;28;20198;-82
2022/10/28 06:03:59;;;;;;;65.22;62.10;;;;;;;12.32;100.00;101603.19;5064959;28;20040;-83
2022/10/28 06:06:27;;;;;;;68.82;65.28;;;;;;;12.19;100.00;101597.34;5066786;28;20499;-84
2022/10/28 06:08:53;;;;;;;67.07;64.18;;;;;;;12.15;100.00;101593.34;5080406;28;20100;-81
2022/10/28 06:11:18;;;;;;;65.95;62.75;;;;;;;12.23;100.00;101606.66;5080731;28;20020;-81
2022/10/28 06:13:43;;;;;;;66.85;63.70;;;;;;;12.24;100.00;101608.34;5080780;28;20543;-81
2022/10/28 06:16:09;;;;;;;67.28;63.90;;;;;;;12.19;100.00;101607.09;5079474;28;20085;-81
2022/10/28 06:18:34;;;;;;;67.45;64.32;;;;;;;12.19;100.00;101613.22;5086971;28;20107;-81
2022/10/28 06:20:59;;;;;;;80.80;76.97;;;;;;;12.14;100.00;101603.06;5079268;28;20408;-81
2022/10/28 06:23:27;;;;;;;73.65;70.30;;;;;;;12.17;100.00;101603.75;5053596;28;20446;-80
2022/10/28 06:25:58;;;;;;;61.42;58.55;;;;;;;11.88;100.00;101563.13;5078811;28;20029;-81
2022/10/28 06:28:23;;;;;;;;;;;;;;;12.16;100.00;101594.97;5079930;28;20024;-81
2022/10/28 06:30:49;;;;;;;55.83;52.38;;;;;;;12.06;100.00;101588.88;5086891;28;20012;-81
2022/10/28 06:33:14;;;;;;;70.60;67.13;;;;;;;12.14;100.00;101604.88;5080230;28;20040;-80
2022/10/28 06:35:40;;;;;;;72.88;69.95;;;;;;;12.18;100.00;101605.44;5079283;28;20024;-81
2022/10/28 06:38:05;;;;;;;73.55;70.15;;;;;;;12.19;100.00;101597.34;5075719;28;20049;-80
2022/10/28 06:40:30;;;;;;;72.07;68.88;;;;;;;12.12;100.00;101585.66;5078486;28;20021;-80
2022/10/28 06:43:01;;;;;;;66.90;63.38;;;;;;;12.18;100.00;101590.38;5076344;28;20024;-81
2022/10/28 06:45:31;;;;;;;62.85;59.78;;;;;;;12.25;100.00;101610.00;5051474;28;20052;-80
2022/10/28 06:47:58;;;;;;;70.72;67.38;;;;;;;12.30;100.00;101604.28;5086163;28;20081;-80
2022/10/28 06:50:24;;;;;;;69.72;66.25;;;;;;;12.32;100.00;101597.88;5067850;28;20040;-80
2022/10/28 06:52:50;;;;;;;67.50;63.70;;;;;;;12.34;100.00;101601.19;5079893;28;20032;-80
2022/10/28 06:55:15;;;;;;;68.30;65.07;;;;;;;12.31;100.00;101593.56;5078870;28;20043;-80
2022/10/28 06:57:40;;;;;;;68.38;64.97;;;;;;;12.38;100.00;101596.47;5059440;28;20032;-81
2022/10/28 07:00:07;;;;;;;89.80;85.55;;;;;;;12.37;100.00;101593.94;5078081;28;20054;-82
2022/10/28 07:02:32;;;;;;;65.18;61.90;;;;;;;12.37;100.00;101586.00;5076281;28;20479;-81
2022/10/28 07:04:57;;;;;;;65.88;62.70;;;;;;;12.49;100.00;101600.75;5062280;28;20047;-81
2022/10/28 07:07:23;;;;;;;67.22;63.83;;;;;;;12.43;100.00;101585.44;5078993;28;20032;-81
2022/10/28 07:09:48;;;;;;;59.17;56.25;;;;;;;12.58;100.00;101601.72;5077415;28;20028;-81
2022/10/28 07:12:13;;;;;;;62.25;59.30;;;;;;;12.62;100.00;101611.84;5078113;28;20039;-81
2022/10/28 07:14:39;;;;;;;60.97;57.38;;;;;;;12.71;100.00;101607.50;5077588;28;20093;-81
2022/10/28 07:17:04;;;;;;;58.38;54.20;;;;;;;12.75;100.00;101601.78;5076780;28;20511;-80
2022/10/28 07:19:30;;;;;;;63.25;60.50;;;;;;;12.75;100.00;101598.28;5076626;28;20028;-81
2022/10/28 07:21:55;;;;;;;64.07;60.05;;;;;;;12.84;100.00;101596.59;5077435;28;20039;-82
2022/10/28 07:24:20;;;;;;;57.00;54.30;;;;;;;12.86;100.00;101597.28;5076067;28;20034;-81
2022/10/28 07:26:48;;;;;;;58.08;55.00;;;;;;;13.01;100.00;101613.53;5060659;28;20036;-81
2022/10/28 07:29:13;;;;;;;62.40;58.78;;;;;;;13.04;100.00;101603.44;5065361;28;20028;-81
2022/10/28 07:31:39;;;;;;;58.95;56.10;;;;;;;13.18;100.00;101594.19;5075052;28;20039;-81
2022/10/28 07:34:04;;;;;;;59.85;56.08;;;;;;;13.27;100.00;101584.50;5071950;28;20920;-81
2022/10/28 07:36:29;;;;;;;59.58;56.42;;;;;;;13.51;100.00;101602.50;5043724;28;20036;-81
2022/10/28 07:38:55;;;;;;;58.22;55.50;;;;;;;13.67;100.00;101592.03;5076022;28;20048;-81
2022/10/28 07:41:21;;;;;;;62.22;59.50;;;;;;;14.03;100.00;101609.78;5075663;28;20039;-81
2022/10/28 07:43:47;;;;;;;59.28;56.50;;;;;;;14.34;100.00;101607.50;5076714;28;20474;-82
2022/10/28 07:46:13;;;;;;;58.88;55.85;;;;;;;14.63;100.00;101598.38;5077372;28;20024;-81
2022/10/28 07:48:39;;;;;;;61.35;57.90;;;;;;;15.05;100.00;101614.38;5065460;28;20036;-81
2022/10/28 07:51:05;;;;;;;39.83;37.90;;;;;;;15.18;100.00;101605.94;5076397;28;20055;-81
2022/10/28 07:53:31;;;;;;;33.67;31.90;;;;;;;15.23;100.00;101603.63;5073941;28;20468;-81
2022/10/28 07:56:04;;;;;;;28.05;26.65;;;;;;;15.25;100.00;101614.09;5059833;28;20586;-82
2022/10/28 07:58:30;;;;;;;27.98;26.17;;;;;;;15.13;100.00;101601.09;5077254;28;20030;-82
2022/10/28 08:00:56;;;;;;;30.95;29.45;;;;;;;15.27;100.00;101614.78;5076012;28;20036;-82
2022/10/28 08:03:23;;;;;;;30.58;28.58;;;;;;;15.37;100.00;101615.44;5077433;28;20699;-81
2022/10/28 08:05:49;;;;;;;30.98;29.35;;;;;;;15.25;100.00;101611.44;5073360;28;20124;-82
2022/10/28 08:08:14;;;;;;;28.40;26.58;;;;;;;15.32;100.00;101607.13;5075814;28;20462;-83
2022/10/28 08:10:40;;;;;;;32.05;30.45;;;;;;;15.52;100.00;101621.78;5076792;28;20042;-82
2022/10/28 08:13:05;;;;;;;33.22;31.13;;;;;;;15.61;100.00;101620.84;5076345;28;20028;-82
2022/10/28 08:15:31;;;;;;;29.80;28.00;;;;;;;15.55;100.00;101597.53;5075847;28;20518;-82
2022/10/28 08:17:56;;;;;;;30.58;28.55;;;;;;;15.69;100.00;101605.88;5083867;28;20047;-82
2022/10/28 08:20:22;;;;;;;30.50;28.75;;;;;;;15.82;100.00;101608.91;5072958;28;20032;-83
2022/10/28 08:22:48;;;;;;;31.02;29.02;;;;;;;16.07;100.00;101612.41;5082369;28;20119;-82
2022/10/28 08:25:13;;;;;;;31.17;29.60;;;;;;;16.00;100.00;101596.25;5073707;28;20036;-82
2022/10/28 08:27:41;;;;;;;29.63;28.05;;;;;;;16.20;100.00;101622.50;5076605;28;20027;-81
2022/10/28 08:30:07;;;;;;;31.35;29.48;;;;;;;16.18;100.00;101616.56;5073599;28;20032;-81
2022/10/28 08:32:32;;;;;;;26.30;25.00;;;;;;;16.25;100.00;101622.88;5074680;28;20036;-81
2022/10/28 08:34:58;;;;;;;32.22;30.42;;;;;;;16.18;100.00;101587.25;5074439;28;20024;-81
2022/10/28 08:37:23;;;;;;;30.83;28.92;;;;;;;16.24;100.00;101599.88;5057164;28;20058;-82
2022/10/28 08:39:48;;;;;;;29.25;27.77;;;;;;;16.39;100.00;101610.69;5056787;28;20024;-81
2022/10/28 08:42:48;;;;;;;24.73;23.23;;;;;;;16.49;100.00;101615.84;5074801;28;20056;-81
2022/10/28 08:45:36;;;;;;;32.10;29.65;;;;;;;16.85;100.00;101616.22;5007038;28;20056;-81
2022/10/28 08:48:06;;;;;;;24.42;22.92;;;;;;;17.43;100.00;101608.78;5015876;28;20143;-81
2022/10/28 08:50:44;;;;;;;22.42;21.05;;;;;;;17.80;99.22;101620.53;5026481;28;20116;-82
2022/10/28 08:53:22;;;;;;;17.45;15.93;;;;;;;17.68;98.73;101617.44;5008364;28;20075;-80
2022/10/28 08:55:50;;;;;;;18.23;16.90;;;;;;;17.67;99.33;101616.63;5023878;28;20065;-81
2022/10/28 08:58:29;;;;;;;18.20;17.00;;;;;;;17.80;98.03;101604.53;5016347;28;20671;-81
2022/10/28 09:00:56;;;;;;;17.17;15.98;;;;;;;18.00;97.17;101619.06;5023099;28;20029;-80
2022/10/28 09:03:32;;;;;;;14.93;13.98;;;;;;;17.92;97.16;101618.31;5007746;28;20112;-80
2022/10/28 09:06:09;;;;;;;16.45;15.32;;;;;;;18.22;96.83;101624.53;5024198;28;20571;-80
2022/10/28 09:08:38;;;;;;;18.63;17.08;;;;;;;18.48;95.44;101616.94;5023624;28;20491;-80
2022/10/28 09:11:09;;;;;;;16.17;14.50;;;;;;;18.73;94.61;101627.38;5022570;28;20040;-81
2022/10/28 09:13:43;;;;;;;16.08;14.77;;;;;;;18.60;95.36;101632.53;5024000;28;20088;-80
2022/10/28 09:16:17;;;;;;;12.80;11.77;;;;;;;18.67;94.30;101617.41;5024419;28;20044;-80
2022/10/28 09:18:51;;;;;;;15.85;14.52;;;;;;;18.40;95.28;101614.38;5023945;28;20437;-80
2022/10/28 09:22:08;;;;;;;13.38;12.30;;;;;;;18.19;97.64;101616.91;5057427;28;20042;-80
2022/10/28 09:24:47;;;;;;;15.50;14.18;;;;;;;17.92;98.26;101621.81;5077771;28;20116;-80
2022/10/28 09:27:33;;;;;;;17.63;16.42;;;;;;;17.80;99.81;101624.03;5080472;28;20490;-80
2022/10/28 09:30:14;;;;;;;20.00;18.95;;;;;;;17.81;100.00;101622.19;5078262;28;20100;-82
2022/10/28 09:32:48;;;;;;;22.35;21.15;;;;;;;17.88;100.00;101610.66;5081282;28;20032;-80
2022/10/28 09:35:22;;;;;;;24.17;22.73;;;;;;;18.22;99.76;101624.53;5078407;28;20108;-80
2022/10/28 09:38:06;;;;;;;22.13;20.50;;;;;;;18.21;98.75;101620.22;5079527;28;20079;-80
2022/10/28 09:40:35;;;;;;;20.85;19.38;;;;;;;18.26;97.50;101626.66;5078654;28;20043;-80
2022/10/28 09:43:27;;;;;;;21.05;19.80;;;;;;;18.41;97.71;101633.91;5082310;28;20060;-80
2022/10/28 09:45:59;;;;;;;19.42;17.67;;;;;;;18.74;96.67;101615.66;5085421;28;20066;-80
2022/10/28 09:48:32;;;;;;;18.30;16.70;;;;;;;19.00;93.96;101615.19;5080560;28;20783;-80
2022/10/28 09:50:58;;;;;;;16.27;14.90;;;;;;;18.75;92.74;101601.28;5078952;28;20043;-80
2022/10/28 09:53:31;;;;;;;14.82;13.77;;;;;;;18.77;94.37;101623.31;5061543;28;20029;-80
2022/10/28 09:55:57;;;;;;;15.30;13.82;;;;;;;18.54;95.29;101619.91;5078587;28;20110;-80
2022/10/28 09:58:22;;;;;;;16.42;15.05;;;;;;;18.27;96.37;101628.34;5079120;28;20056;-80
2022/10/28 10:00:48;;;;;;;16.27;15.35;;;;;;;18.14;97.26;101622.78;5078174;28;20043;-80
2022/10/28 10:03:15;;;;;;;18.33;17.35;;;;;;;17.78;98.69;101603.88;5078342;28;20929;-80
2022/10/28 10:05:44;;;;;;;19.92;18.63;;;;;;;17.62;100.00;101618.19;5079902;28;20039;-80
2022/10/28 10:08:17;;;;;;;24.60;22.92;;;;;;;17.55;100.00;101618.06;5080798;28;20039;-80
2022/10/28 10:10:51;;;;;;;30.85;29.38;;;;;;;17.55;100.00;101626.06;5078794;28;20047;-80
2022/10/28 10:13:24;;;;;;;31.42;29.60;;;;;;;17.49;100.00;101613.44;5078899;28;20028;-80
2022/10/28 10:15:55;;;;;;;30.65;28.83;;;;;;;17.80;100.00;101626.72;5078856;28;20044;-80
2022/10/28 10:18:25;;;;;;;31.85;30.17;;;;;;;17.95;100.00;101610.78;5079874;28;20460;-81
2022/10/28 10:20:59;;;;;;;29.85;27.95;;;;;;;18.15;98.86;101616.44;5078626;28;20134;-80
2022/10/28 10:23:36;;;;;;;28.35;27.00;;;;;;;18.64;97.01;101625.78;5080356;28;20032;-82
2022/10/28 10:26:12;;;;;;;27.27;25.73;;;;;;;18.91;95.87;101630.50;5078553;28;20039;-80
2022/10/28 10:29:03;;;;;;;23.40;21.65;;;;;;;18.77;94.29;101628.66;5080536;28;20503;-80
2022/10/28 10:31:29;;;;;;;19.52;18.63;;;;;;;18.61;96.02;101612.78;5080226;28;20047;-80
2022/10/28 10:33:56;;;;;;;19.92;18.45;;;;;;;18.42;96.85;101598.97;5076391;28;20024;-80
2022/10/28 10:36:27;;;;;;;20.02;19.02;;;;;;;18.40;96.80;101616.19;5044652;28;20032;-81
2022/10/28 10:38:54;;;;;;;;;;;;;;;18.36;97.86;101615.75;5082140;28;20048;-81
2022/10/28 10:41:43;;;;;;;21.00;19.75;;;;;;;18.30;97.68;101621.81;5083610;28;19935;-81
2022/10/28 10:44:20;;;;;;;25.33;23.58;;;;;;;18.24;98.00;101617.19;5078320;28;20032;-80
2022/10/28 10:46:52;;;;;;;22.40;21.30;;;;;;;18.23;98.70;101611.03;5081692;28;20087;-81
2022/10/28 10:49:17;;;;;;;24.80;23.38;;;;;;;18.20;98.57;101607.88;5080527;28;20024;-83
2022/10/28 10:51:50;;;;;;;25.90;23.98;;;;;;;18.22;98.77;101611.19;5080006;28;20088;-82
2022/10/28 10:54:16;;;;;;;27.48;26.00;;;;;;;18.32;99.05;101616.28;5081395;28;20040;-82
2022/10/28 10:56:42;;;;;;;25.42;24.23;;;;;;;18.37;98.32;101596.00;5080853;28;20513;-81
2022/10/28 10:59:28;;;;;;;24.42;23.20;;;;;;;18.38;98.02;101597.69;5063344;28;20474;-81
2022/10/28 11:01:56;;;;;;;26.58;25.27;;;;;;;18.40;97.75;101597.47;5075990;28;20085;-81
2022/10/28 11:04:23;;;;;;;24.35;23.15;;;;;;;18.46;97.48;101608.25;5078078;28;20039;-81
2022/10/28 11:06:51;;;;;;;24.88;23.63;;;;;;;18.54;97.14;101585.97;5078465;28;20484;-80
2022/10/28 11:09:38;;;;;;;25.60;24.33;;;;;;;19.02;94.64;101605.13;5075671;28;20119;-81
2022/10/28 11:12:35;;;;;;;24.15;22.88;;;;;;;19.43;93.27;101590.34;5078734;28;20107;-82
2022/10/28 11:15:04;;;;;;;18.92;17.00;;;;;;;19.47;91.98;101580.94;5068684;28;20075;-81
2022/10/28 11:17:31;;;;;;;16.70;15.48;;;;;;;19.15;93.60;101582.25;5079931;28;20317;-81
2022/10/28 11:19:59;;;;;;;21.17;20.08;;;;;;;19.22;93.02;101567.06;5084806;28;20020;-81